sensor_id;sensor_type;location;lat;lon;timestamp;pressure;altitude;pressure_sealevel;temperature;humidity
77299;BME280;66361;52.034;20.656;2023-02-01T00:01:53;98587.69;;;1.87;100.00
77299;BME280;66361;52.034;20.656;2023-02-01T00:06:01;98593.13;;;1.83;100.00
77299;BME280;66361;52.034;20.656;2023-02-01T00:10:06;98587.03;;;1.84;100.00
77299;BME280;66361;52.034;20.656;2023-02-01T00:14:10;98595.88;;;1.97;100.00
77299;BME280;66361;52.034;20.656;2023-02-01T00:18:14;98588.56;;;2.04;100.00
77299;BME280;66361;52.034;20.656;2023-02-01T00:22:18;98584.72;;;2.11;100.00
77299;BME280;66361;52.034;20.656;2023-02-01T00:26:26;98583.63;;;2.15;100.00
77299;BME280;66361;52.034;20.656;2023-02-01T00:30:32;98582.81;;;2.30;100.00
77299;BME280;66361;52.034;20.656;2023-02-01T00:34:36;98582.41;;;2.37;100.00
77299;BME280;66361;52.034;20.656;2023-02-01T00:38:42;98594.88;;;2.46;100.00
77299;BME280;66361;52.034;20.656;2023-02-01T00:42:45;98597.06;;;2.54;100.00
77299;BME280;66361;52.034;20.656;2023-02-01T00:46:49;98609.66;;;2.62;100.00
77299;BME280;66361;52.034;20.656;2023-02-01T00:50:52;98612.03;;;2.66;100.00
77299;BME280;66361;52.034;20.656;2023-02-01T00:54:57;98616.91;;;2.72;100.00
77299;BME280;66361;52.034;20.656;2023-02-01T00:59:01;98602.69;;;2.78;100.00
77299;BME280;66361;52.034;20.656;2023-02-01T01:03:04;98618.91;;;2.83;100.00
77299;BME280;66361;52.034;20.656;2023-02-01T01:07:19;98613.63;;;2.69;100.00
77299;BME280;66361;52.034;20.656;2023-02-01T01:11:26;98613.22;;;2.61;100.00
77299;BME280;66361;52.034;20.656;2023-02-01T01:15:36;98614.72;;;2.49;100.00
77299;BME280;66361;52.034;20.656;2023-02-01T01:19:39;98616.41;;;2.34;100.00
77299;BME280;66361;52.034;20.656;2023-02-01T01:23:43;98604.22;;;2.19;100.00
77299;BME280;66361;52.034;20.656;2023-02-01T01:27:49;98614.78;;;2.16;100.00
77299;BME280;66361;52.034;20.656;2023-02-01T01:31:52;98618.06;;;2.20;100.00
77299;BME280;66361;52.034;20.656;2023-02-01T01:35:57;98622.03;;;2.27;100.00
77299;BME280;66361;52.034;20.656;2023-02-01T01:40:05;98623.38;;;2.34;99.40
77299;BME280;66361;52.034;20.656;2023-02-01T01:48:59;98613.97;;;1.98;99.99
77299;BME280;66361;52.034;20.656;2023-02-01T01:53:07;98615.97;;;1.78;100.00
77299;BME280;66361;52.034;20.656;2023-02-01T01:57:19;98629.44;;;1.69;100.00
77299;BME280;66361;52.034;20.656;2023-02-01T02:01:23;98630.59;;;1.63;100.00
77299;BME280;66361;52.034;20.656;2023-02-01T02:05:27;98638.97;;;1.85;100.00
77299;BME280;66361;52.034;20.656;2023-02-01T02:09:30;98645.72;;;2.05;100.00
77299;BME280;66361;52.034;20.656;2023-02-01T02:13:36;98653.66;;;2.19;100.00
77299;BME280;66361;52.034;20.656;2023-02-01T02:17:50;98655.59;;;2.31;100.00
77299;BME280;66361;52.034;20.656;2023-02-01T02:22:17;98652.50;;;2.40;100.00
77299;BME280;66361;52.034;20.656;2023-02-01T02:26:43;98650.50;;;2.45;100.00
77299;BME280;66361;52.034;20.656;2023-02-01T02:35:30;98662.59;;;2.46;100.00
77299;BME280;66361;52.034;20.656;2023-02-01T02:39:50;98661.44;;;2.52;99.01
77299;BME280;66361;52.034;20.656;2023-02-01T02:43:58;98666.63;;;2.52;100.00
77299;BME280;66361;52.034;20.656;2023-02-01T02:48:24;98669.31;;;2.51;99.13
77299;BME280;66361;52.034;20.656;2023-02-01T02:52:31;98668.56;;;2.49;98.05
77299;BME280;66361;52.034;20.656;2023-02-01T02:56:53;98677.63;;;2.41;99.14
77299;BME280;66361;52.034;20.656;2023-02-01T03:01:14;98685.34;;;2.43;98.80
77299;BME280;66361;52.034;20.656;2023-02-01T03:05:41;98677.53;;;2.43;98.95
77299;BME280;66361;52.034;20.656;2023-02-01T03:09:47;98685.28;;;2.44;98.98
77299;BME280;66361;52.034;20.656;2023-02-01T03:13:53;98683.28;;;2.50;96.23
77299;BME280;66361;52.034;20.656;2023-02-01T03:18:01;98686.69;;;2.50;96.86
77299;BME280;66361;52.034;20.656;2023-02-01T03:22:07;98685.72;;;2.53;95.90
77299;BME280;66361;52.034;20.656;2023-02-01T03:26:15;98689.84;;;2.57;97.12
77299;BME280;66361;52.034;20.656;2023-02-01T03:30:24;98690.34;;;2.63;95.97
77299;BME280;66361;52.034;20.656;2023-02-01T03:34:29;98688.75;;;2.61;94.96
77299;BME280;66361;52.034;20.656;2023-02-01T03:38:35;98700.69;;;2.65;93.42
77299;BME280;66361;52.034;20.656;2023-02-01T03:42:48;98707.47;;;2.67;93.71
77299;BME280;66361;52.034;20.656;2023-02-01T03:46:55;98708.16;;;2.71;92.30
77299;BME280;66361;52.034;20.656;2023-02-01T03:51:01;98698.47;;;2.73;91.68
77299;BME280;66361;52.034;20.656;2023-02-01T03:55:08;98701.94;;;2.73;91.49
77299;BME280;66361;52.034;20.656;2023-02-01T03:59:13;98710.50;;;2.75;90.91
77299;BME280;66361;52.034;20.656;2023-02-01T04:03:17;98709.50;;;2.78;90.43
77299;BME280;66361;52.034;20.656;2023-02-01T04:07:20;98706.97;;;2.76;89.88
77299;BME280;66361;52.034;20.656;2023-02-01T04:11:23;98717.91;;;2.83;88.74
77299;BME280;66361;52.034;20.656;2023-02-01T04:15:28;98708.47;;;2.80;89.04
77299;BME280;66361;52.034;20.656;2023-02-01T04:19:31;98703.28;;;2.80;88.84
77299;BME280;66361;52.034;20.656;2023-02-01T04:23:34;98717.16;;;2.81;88.80
77299;BME280;66361;52.034;20.656;2023-02-01T04:27:37;98706.97;;;2.76;89.30
77299;BME280;66361;52.034;20.656;2023-02-01T04:31:45;98705.38;;;2.74;89.12
77299;BME280;66361;52.034;20.656;2023-02-01T04:35:51;98703.28;;;2.80;88.00
77299;BME280;66361;52.034;20.656;2023-02-01T04:39:54;98715.63;;;2.77;88.29
77299;BME280;66361;52.034;20.656;2023-02-01T04:43:57;98715.72;;;2.75;88.38
77299;BME280;66361;52.034;20.656;2023-02-01T04:48:02;98719.31;;;2.73;89.84
77299;BME280;66361;52.034;20.656;2023-02-01T04:52:06;98718.84;;;2.82;87.39
77299;BME280;66361;52.034;20.656;2023-02-01T04:56:09;98718.09;;;2.80;88.13
77299;BME280;66361;52.034;20.656;2023-02-01T05:00:13;98717.31;;;2.78;87.44
77299;BME280;66361;52.034;20.656;2023-02-01T05:04:17;98712.88;;;2.80;87.73
77299;BME280;66361;52.034;20.656;2023-02-01T05:08:21;98724.13;;;2.80;86.90
77299;BME280;66361;52.034;20.656;2023-02-01T05:12:24;98714.63;;;2.79;87.41
77299;BME280;66361;52.034;20.656;2023-02-01T05:16:44;98721.63;;;2.79;86.88
77299;BME280;66361;52.034;20.656;2023-02-01T05:20:49;98736.31;;;2.80;87.21
77299;BME280;66361;52.034;20.656;2023-02-01T05:24:52;98730.28;;;2.79;89.66
77299;BME280;66361;52.034;20.656;2023-02-01T05:28:55;98729.00;;;2.71;90.78
77299;BME280;66361;52.034;20.656;2023-02-01T05:32:59;98733.69;;;2.64;91.47
77299;BME280;66361;52.034;20.656;2023-02-01T05:37:03;98725.88;;;2.64;91.77
77299;BME280;66361;52.034;20.656;2023-02-01T05:41:06;98701.09;;;2.57;91.52
77299;BME280;66361;52.034;20.656;2023-02-01T05:45:11;98704.25;;;2.46;91.92
77299;BME280;66361;52.034;20.656;2023-02-01T05:49:14;98720.03;;;2.43;91.56
77299;BME280;66361;52.034;20.656;2023-02-01T05:53:19;98722.47;;;2.46;90.96
77299;BME280;66361;52.034;20.656;2023-02-01T05:57:22;98716.72;;;2.57;90.00
77299;BME280;66361;52.034;20.656;2023-02-01T06:01:25;98713.94;;;2.60;89.50
77299;BME280;66361;52.034;20.656;2023-02-01T06:05:28;98719.22;;;2.59;89.48
77299;BME280;66361;52.034;20.656;2023-02-01T06:09:33;98702.00;;;2.56;89.98
77299;BME280;66361;52.034;20.656;2023-02-01T06:13:36;98696.81;;;2.56;89.00
77299;BME280;66361;52.034;20.656;2023-02-01T06:17:40;98713.16;;;2.58;89.34
77299;BME280;66361;52.034;20.656;2023-02-01T06:21:47;98706.81;;;2.64;88.63
77299;BME280;66361;52.034;20.656;2023-02-01T06:25:57;98707.72;;;2.63;88.50
77299;BME280;66361;52.034;20.656;2023-02-01T06:30:00;98685.44;;;2.73;86.78
77299;BME280;66361;52.034;20.656;2023-02-01T06:34:03;98714.47;;;2.82;87.11
77299;BME280;66361;52.034;20.656;2023-02-01T06:38:07;98708.41;;;2.82;87.63
77299;BME280;66361;52.034;20.656;2023-02-01T06:42:11;98707.13;;;2.73;87.98
77299;BME280;66361;52.034;20.656;2023-02-01T06:46:15;98699.06;;;2.78;87.67
77299;BME280;66361;52.034;20.656;2023-02-01T06:50:18;98709.50;;;2.93;86.60
77299;BME280;66361;52.034;20.656;2023-02-01T06:54:22;98702.97;;;3.02;86.17
77299;BME280;66361;52.034;20.656;2023-02-01T06:58:29;98703.03;;;3.01;86.79
77299;BME280;66361;52.034;20.656;2023-02-01T07:02:33;98703.94;;;3.00;85.62
77299;BME280;66361;52.034;20.656;2023-02-01T07:06:36;98699.34;;;3.05;85.82
77299;BME280;66361;52.034;20.656;2023-02-01T07:10:39;98705.22;;;3.08;85.69
77299;BME280;66361;52.034;20.656;2023-02-01T07:14:44;98697.22;;;3.11;85.14
77299;BME280;66361;52.034;20.656;2023-02-01T07:18:49;98702.34;;;3.13;84.31
77299;BME280;66361;52.034;20.656;2023-02-01T07:22:55;98703.09;;;3.15;84.27
77299;BME280;66361;52.034;20.656;2023-02-01T07:26:59;98702.19;;;3.16;83.62
77299;BME280;66361;52.034;20.656;2023-02-01T07:31:04;98707.47;;;3.14;84.17
77299;BME280;66361;52.034;20.656;2023-02-01T07:35:07;98715.97;;;3.18;83.36
77299;BME280;66361;52.034;20.656;2023-02-01T07:39:10;98706.13;;;3.23;83.04
77299;BME280;66361;52.034;20.656;2023-02-01T07:43:14;98689.47;;;3.25;83.01
77299;BME280;66361;52.034;20.656;2023-02-01T07:47:18;98696.84;;;3.33;84.03
77299;BME280;66361;52.034;20.656;2023-02-01T07:51:22;98704.91;;;3.44;82.65
77299;BME280;66361;52.034;20.656;2023-02-01T07:55:25;98711.28;;;3.54;82.21
77299;BME280;66361;52.034;20.656;2023-02-01T07:59:28;98695.47;;;3.57;83.67
77299;BME280;66361;52.034;20.656;2023-02-01T08:03:34;98707.25;;;3.49;81.70
77299;BME280;66361;52.034;20.656;2023-02-01T08:07:37;98695.97;;;3.48;82.32
77299;BME280;66361;52.034;20.656;2023-02-01T08:11:40;98702.69;;;3.52;81.53
77299;BME280;66361;52.034;20.656;2023-02-01T08:15:44;98679.72;;;3.59;81.82
77299;BME280;66361;52.034;20.656;2023-02-01T08:19:48;98701.16;;;3.64;81.53
77299;BME280;66361;52.034;20.656;2023-02-01T08:23:52;98701.16;;;3.64;81.06
77299;BME280;66361;52.034;20.656;2023-02-01T08:27:55;98704.69;;;3.63;80.70
77299;BME280;66361;52.034;20.656;2023-02-01T08:31:58;98711.59;;;3.64;82.02
77299;BME280;66361;52.034;20.656;2023-02-01T08:36:06;98697.44;;;3.68;80.13
77299;BME280;66361;52.034;20.656;2023-02-01T08:40:10;98710.72;;;3.79;79.99
77299;BME280;66361;52.034;20.656;2023-02-01T08:44:15;98689.50;;;3.99;79.64
77299;BME280;66361;52.034;20.656;2023-02-01T08:48:17;98702.03;;;4.22;76.83
77299;BME280;66361;52.034;20.656;2023-02-01T08:52:22;98708.00;;;4.38;76.01
77299;BME280;66361;52.034;20.656;2023-02-01T08:56:25;98715.16;;;4.35;76.43
77299;BME280;66361;52.034;20.656;2023-02-01T09:00:29;98716.66;;;4.25;77.22
77299;BME280;66361;52.034;20.656;2023-02-01T09:04:32;98713.13;;;4.26;77.30
77299;BME280;66361;52.034;20.656;2023-02-01T09:08:37;98699.78;;;4.30;76.37
77299;BME280;66361;52.034;20.656;2023-02-01T09:12:42;98705.28;;;4.26;77.10
77299;BME280;66361;52.034;20.656;2023-02-01T09:16:45;98722.63;;;4.27;77.41
77299;BME280;66361;52.034;20.656;2023-02-01T09:20:48;98721.03;;;4.24;78.48
77299;BME280;66361;52.034;20.656;2023-02-01T09:24:53;98711.19;;;4.29;77.99
77299;BME280;66361;52.034;20.656;2023-02-01T09:28:59;98709.78;;;4.52;77.88
77299;BME280;66361;52.034;20.656;2023-02-01T09:33:03;98714.00;;;4.96;74.24
77299;BME280;66361;52.034;20.656;2023-02-01T09:37:06;98714.97;;;5.48;73.47
77299;BME280;66361;52.034;20.656;2023-02-01T09:41:29;98696.00;;;5.84;72.13
77299;BME280;66361;52.034;20.656;2023-02-01T09:45:42;98704.72;;;6.22;68.95
77299;BME280;66361;52.034;20.656;2023-02-01T09:49:52;98700.94;;;6.52;68.10
77299;BME280;66361;52.034;20.656;2023-02-01T09:54:01;98698.19;;;6.78;67.30
77299;BME280;66361;52.034;20.656;2023-02-01T09:58:12;98706.00;;;6.29;68.49
77299;BME280;66361;52.034;20.656;2023-02-01T10:02:22;98701.06;;;6.25;68.35
77299;BME280;66361;52.034;20.656;2023-02-01T10:06:36;98704.72;;;6.60;68.92
77299;BME280;66361;52.034;20.656;2023-02-01T10:10:43;98690.81;;;6.47;68.38
77299;BME280;66361;52.034;20.656;2023-02-01T10:14:59;98695.09;;;6.35;68.91
77299;BME280;66361;52.034;20.656;2023-02-01T10:19:20;98691.72;;;6.59;70.23
77299;BME280;66361;52.034;20.656;2023-02-01T10:23:41;98685.31;;;6.75;67.13
77299;BME280;66361;52.034;20.656;2023-02-01T10:27:49;98685.63;;;6.71;66.66
77299;BME280;66361;52.034;20.656;2023-02-01T10:31:56;98695.41;;;6.18;68.10
77299;BME280;66361;52.034;20.656;2023-02-01T10:36:03;98693.47;;;5.70;70.48
77299;BME280;66361;52.034;20.656;2023-02-01T10:40:16;98703.44;;;5.38;71.60
77299;BME280;66361;52.034;20.656;2023-02-01T10:44:24;98698.84;;;5.42;71.83
77299;BME280;66361;52.034;20.656;2023-02-01T10:48:31;98692.50;;;5.58;71.27
77299;BME280;66361;52.034;20.656;2023-02-01T10:52:39;98694.25;;;5.58;72.19
77299;BME280;66361;52.034;20.656;2023-02-01T10:56:44;98696.53;;;5.37;72.73
77299;BME280;66361;52.034;20.656;2023-02-01T11:00:53;98681.91;;;5.20;74.03
77299;BME280;66361;52.034;20.656;2023-02-01T11:05:04;98693.94;;;4.96;74.61
77299;BME280;66361;52.034;20.656;2023-02-01T11:09:18;98689.75;;;4.79;75.71
77299;BME280;66361;52.034;20.656;2023-02-01T11:13:29;98695.28;;;4.75;76.95
77299;BME280;66361;52.034;20.656;2023-02-01T11:17:40;98688.66;;;4.69;76.76
77299;BME280;66361;52.034;20.656;2023-02-01T11:21:50;98693.59;;;4.74;76.70
77299;BME280;66361;52.034;20.656;2023-02-01T11:25:56;98670.16;;;4.72;77.03
77299;BME280;66361;52.034;20.656;2023-02-01T11:30:01;98684.47;;;4.67;77.22
77299;BME280;66361;52.034;20.656;2023-02-01T11:34:08;98680.66;;;4.58;77.02
77299;BME280;66361;52.034;20.656;2023-02-01T11:38:24;98685.03;;;4.58;77.79
77299;BME280;66361;52.034;20.656;2023-02-01T11:42:33;98672.06;;;4.70;77.74
77299;BME280;66361;52.034;20.656;2023-02-01T11:46:36;98665.88;;;4.71;78.30
77299;BME280;66361;52.034;20.656;2023-02-01T11:50:44;98657.47;;;4.80;76.83
77299;BME280;66361;52.034;20.656;2023-02-01T11:55:06;98655.69;;;4.81;77.71
77299;BME280;66361;52.034;20.656;2023-02-01T11:59:22;98659.72;;;4.72;77.72
77299;BME280;66361;52.034;20.656;2023-02-01T12:08:17;98646.22;;;4.37;81.15
77299;BME280;66361;52.034;20.656;2023-02-01T12:12:33;98642.25;;;4.32;82.22
77299;BME280;66361;52.034;20.656;2023-02-01T12:16:50;98639.22;;;4.38;82.34
77299;BME280;66361;52.034;20.656;2023-02-01T12:21:06;98631.31;;;4.39;82.99
77299;BME280;66361;52.034;20.656;2023-02-01T12:25:23;98625.53;;;4.34;84.59
77299;BME280;66361;52.034;20.656;2023-02-01T12:29:53;98627.41;;;4.32;83.96
77299;BME280;66361;52.034;20.656;2023-02-01T12:34:12;98639.63;;;4.32;83.88
77299;BME280;66361;52.034;20.656;2023-02-01T12:38:34;98622.63;;;4.39;82.86
77299;BME280;66361;52.034;20.656;2023-02-01T12:42:41;98632.53;;;4.48;82.80
77299;BME280;66361;52.034;20.656;2023-02-01T12:46:52;98630.03;;;4.73;81.08
77299;BME280;66361;52.034;20.656;2023-02-01T12:51:01;98623.41;;;4.82;81.00
77299;BME280;66361;52.034;20.656;2023-02-01T12:55:10;98624.25;;;4.68;81.61
77299;BME280;66361;52.034;20.656;2023-02-01T12:59:24;98626.69;;;4.71;80.11
77299;BME280;66361;52.034;20.656;2023-02-01T13:03:37;98625.75;;;4.72;79.96
77299;BME280;66361;52.034;20.656;2023-02-01T13:07:45;98625.31;;;4.66;81.09
77299;BME280;66361;52.034;20.656;2023-02-01T13:11:53;98617.66;;;4.63;80.95
77299;BME280;66361;52.034;20.656;2023-02-01T13:16:07;98611.31;;;4.53;81.28
77299;BME280;66361;52.034;20.656;2023-02-01T13:20:25;98608.47;;;4.43;82.52
77299;BME280;66361;52.034;20.656;2023-02-01T13:24:35;98618.25;;;4.39;83.47
77299;BME280;66361;52.034;20.656;2023-02-01T13:28:44;98632.88;;;4.42;84.62
77299;BME280;66361;52.034;20.656;2023-02-01T13:33:01;98642.66;;;4.53;83.67
77299;BME280;66361;52.034;20.656;2023-02-01T13:37:54;98652.31;;;4.52;82.57
77299;BME280;66361;52.034;20.656;2023-02-01T13:42:04;98651.06;;;4.58;81.98
77299;BME280;66361;52.034;20.656;2023-02-01T13:46:15;98660.69;;;4.57;81.48
77299;BME280;66361;52.034;20.656;2023-02-01T13:50:24;98648.19;;;4.48;81.89
77299;BME280;66361;52.034;20.656;2023-02-01T13:54:38;98647.00;;;4.39;81.52
77299;BME280;66361;52.034;20.656;2023-02-01T13:58:43;98652.69;;;4.32;82.05
77299;BME280;66361;52.034;20.656;2023-02-01T14:02:49;98659.59;;;4.33;80.69
77299;BME280;66361;52.034;20.656;2023-02-01T14:06:55;98658.28;;;4.40;79.25
77299;BME280;66361;52.034;20.656;2023-02-01T14:11:01;98659.22;;;4.39;78.91
77299;BME280;66361;52.034;20.656;2023-02-01T14:15:21;98657.16;;;4.44;78.73
77299;BME280;66361;52.034;20.656;2023-02-01T14:19:27;98640.53;;;4.45;77.96
77299;BME280;66361;52.034;20.656;2023-02-01T14:23:39;98645.41;;;4.37;78.70
77299;BME280;66361;52.034;20.656;2023-02-01T14:27:44;98641.66;;;4.27;78.89
77299;BME280;66361;52.034;20.656;2023-02-01T14:32:00;98643.38;;;4.14;80.16
77299;BME280;66361;52.034;20.656;2023-02-01T14:36:08;98658.19;;;4.13;80.39
77299;BME280;66361;52.034;20.656;2023-02-01T14:40:17;98651.84;;;4.17;80.87
77299;BME280;66361;52.034;20.656;2023-02-01T14:44:27;98654.47;;;4.17;80.78
77299;BME280;66361;52.034;20.656;2023-02-01T14:48:43;98654.47;;;4.17;80.77
77299;BME280;66361;52.034;20.656;2023-02-01T14:53:03;98632.34;;;4.09;81.77
77299;BME280;66361;52.034;20.656;2023-02-01T14:57:15;98648.94;;;4.08;82.21
77299;BME280;66361;52.034;20.656;2023-02-01T15:01:23;98657.91;;;4.04;82.40
77299;BME280;66361;52.034;20.656;2023-02-01T15:05:31;98650.16;;;4.02;82.82
77299;BME280;66361;52.034;20.656;2023-02-01T15:09:37;98654.72;;;3.99;82.88
77299;BME280;66361;52.034;20.656;2023-02-01T15:13:48;98653.97;;;3.97;83.84
77299;BME280;66361;52.034;20.656;2023-02-01T15:17:57;98645.47;;;3.93;83.38
77299;BME280;66361;52.034;20.656;2023-02-01T15:22:18;98652.56;;;3.91;84.13
77299;BME280;66361;52.034;20.656;2023-02-01T15:26:25;98664.72;;;3.92;84.83
77299;BME280;66361;52.034;20.656;2023-02-01T15:30:30;98663.47;;;3.83;85.67
77299;BME280;66361;52.034;20.656;2023-02-01T15:34:50;98662.03;;;3.64;87.19
77299;BME280;66361;52.034;20.656;2023-02-01T15:39:18;98674.19;;;3.49;87.81
77299;BME280;66361;52.034;20.656;2023-02-01T15:43:24;98670.53;;;3.37;88.67
77299;BME280;66361;52.034;20.656;2023-02-01T15:47:30;98664.13;;;3.43;87.71
77299;BME280;66361;52.034;20.656;2023-02-01T15:51:35;98664.19;;;3.41;88.13
77299;BME280;66361;52.034;20.656;2023-02-01T15:55:40;98666.63;;;3.44;87.39
77299;BME280;66361;52.034;20.656;2023-02-01T15:59:45;98673.16;;;3.52;86.99
77299;BME280;66361;52.034;20.656;2023-02-01T16:03:49;98662.38;;;3.43;88.00
77299;BME280;66361;52.034;20.656;2023-02-01T16:08:00;98666.56;;;3.46;87.46
77299;BME280;66361;52.034;20.656;2023-02-01T16:12:23;98664.69;;;3.48;87.80
77299;BME280;66361;52.034;20.656;2023-02-01T16:16:29;98662.19;;;3.47;88.25
77299;BME280;66361;52.034;20.656;2023-02-01T16:20:33;98679.47;;;3.48;87.90
77299;BME280;66361;52.034;20.656;2023-02-01T16:24:39;98681.28;;;3.47;88.47
77299;BME280;66361;52.034;20.656;2023-02-01T16:28:45;98674.38;;;3.46;87.87
77299;BME280;66361;52.034;20.656;2023-02-01T16:32:49;98677.06;;;3.44;88.59
77299;BME280;66361;52.034;20.656;2023-02-01T16:36:57;98667.25;;;3.34;90.17
77299;BME280;66361;52.034;20.656;2023-02-01T16:41:01;98670.78;;;3.33;90.88
77299;BME280;66361;52.034;20.656;2023-02-01T16:45:08;98672.56;;;3.32;91.76
77299;BME280;66361;52.034;20.656;2023-02-01T16:49:17;98669.63;;;3.23;91.53
77299;BME280;66361;52.034;20.656;2023-02-01T16:53:25;98663.75;;;3.04;92.96
77299;BME280;66361;52.034;20.656;2023-02-01T16:57:36;98677.47;;;2.91;94.23
77299;BME280;66361;52.034;20.656;2023-02-01T17:01:39;98675.03;;;2.88;95.31
77299;BME280;66361;52.034;20.656;2023-02-01T17:05:48;98670.25;;;2.81;94.58
77299;BME280;66361;52.034;20.656;2023-02-01T17:09:55;98680.53;;;2.68;95.92
77299;BME280;66361;52.034;20.656;2023-02-01T17:14:13;98673.25;;;2.58;97.12
77299;BME280;66361;52.034;20.656;2023-02-01T17:18:18;98685.31;;;2.60;98.86
77299;BME280;66361;52.034;20.656;2023-02-01T17:22:24;98679.31;;;2.74;97.92
77299;BME280;66361;52.034;20.656;2023-02-01T17:26:29;98672.97;;;2.79;96.84
77299;BME280;66361;52.034;20.656;2023-02-01T17:30:39;98678.16;;;2.79;95.76
77299;BME280;66361;52.034;20.656;2023-02-01T17:34:42;98679.75;;;2.66;95.94
77299;BME280;66361;52.034;20.656;2023-02-01T17:38:47;98669.16;;;2.54;97.29
77299;BME280;66361;52.034;20.656;2023-02-01T17:43:04;98683.09;;;2.53;97.04
77299;BME280;66361;52.034;20.656;2023-02-01T17:47:14;98676.28;;;2.66;96.64
77299;BME280;66361;52.034;20.656;2023-02-01T17:51:19;98682.19;;;2.85;94.12
77299;BME280;66361;52.034;20.656;2023-02-01T17:55:24;98678.97;;;2.95;92.81
77299;BME280;66361;52.034;20.656;2023-02-01T17:59:28;98684.63;;;3.04;91.63
77299;BME280;66361;52.034;20.656;2023-02-01T18:03:33;98691.34;;;3.08;91.09
77299;BME280;66361;52.034;20.656;2023-02-01T18:07:36;98682.44;;;3.12;90.21
77299;BME280;66361;52.034;20.656;2023-02-01T18:11:40;98688.47;;;3.12;90.68
77299;BME280;66361;52.034;20.656;2023-02-01T18:15:43;98687.38;;;3.16;89.78
77299;BME280;66361;52.034;20.656;2023-02-01T18:19:47;98687.03;;;3.22;88.90
77299;BME280;66361;52.034;20.656;2023-02-01T18:23:50;98680.81;;;3.25;88.91
77299;BME280;66361;52.034;20.656;2023-02-01T18:27:54;98673.81;;;3.25;88.21
77299;BME280;66361;52.034;20.656;2023-02-01T18:31:57;98669.56;;;3.24;88.65
77299;BME280;66361;52.034;20.656;2023-02-01T18:36:02;98676.59;;;3.22;89.24
77299;BME280;66361;52.034;20.656;2023-02-01T18:40:12;98671.63;;;3.18;89.05
77299;BME280;66361;52.034;20.656;2023-02-01T18:44:16;98678.38;;;3.22;89.28
77299;BME280;66361;52.034;20.656;2023-02-01T18:48:23;98674.19;;;3.19;90.26
77299;BME280;66361;52.034;20.656;2023-02-01T18:52:28;98670.13;;;3.14;92.67
77299;BME280;66361;52.034;20.656;2023-02-01T18:56:31;98664.59;;;3.04;94.27
77299;BME280;66361;52.034;20.656;2023-02-01T19:00:34;98670.75;;;3.03;95.82
77299;BME280;66361;52.034;20.656;2023-02-01T19:04:37;98650.25;;;2.97;96.23
77299;BME280;66361;52.034;20.656;2023-02-01T19:08:44;98653.94;;;2.93;96.62
77299;BME280;66361;52.034;20.656;2023-02-01T19:12:48;98652.69;;;2.84;99.00
77299;BME280;66361;52.034;20.656;2023-02-01T19:16:51;98646.66;;;2.68;99.52
77299;BME280;66361;52.034;20.656;2023-02-01T19:21:01;98646.16;;;2.46;100.00
77299;BME280;66361;52.034;20.656;2023-02-01T19:25:13;98645.97;;;2.33;100.00
77299;BME280;66361;52.034;20.656;2023-02-01T19:29:18;98641.91;;;2.28;100.00
77299;BME280;66361;52.034;20.656;2023-02-01T19:33:22;98648.38;;;2.36;100.00
77299;BME280;66361;52.034;20.656;2023-02-01T19:37:25;98641.44;;;2.53;100.00
77299;BME280;66361;52.034;20.656;2023-02-01T19:41:30;98646.66;;;2.68;97.87
77299;BME280;66361;52.034;20.656;2023-02-01T19:45:34;98636.56;;;2.78;96.44
77299;BME280;66361;52.034;20.656;2023-02-01T19:49:39;98648.31;;;2.85;94.73
77299;BME280;66361;52.034;20.656;2023-02-01T19:53:43;98641.09;;;2.90;93.84
77299;BME280;66361;52.034;20.656;2023-02-01T19:57:47;98626.78;;;2.97;92.64
77299;BME280;66361;52.034;20.656;2023-02-01T20:01:51;98632.91;;;2.96;92.52
77299;BME280;66361;52.034;20.656;2023-02-01T20:05:58;98636.72;;;2.90;91.97
77299;BME280;66361;52.034;20.656;2023-02-01T20:10:05;98640.75;;;2.96;90.93
77299;BME280;66361;52.034;20.656;2023-02-01T20:14:10;98642.34;;;2.99;90.82
77299;BME280;66361;52.034;20.656;2023-02-01T20:18:15;98633.59;;;3.00;90.38
77299;BME280;66361;52.034;20.656;2023-02-01T20:22:18;98627.22;;;2.89;90.57
77299;BME280;66361;52.034;20.656;2023-02-01T20:26:22;98626.97;;;2.78;91.78
77299;BME280;66361;52.034;20.656;2023-02-01T20:30:27;98633.03;;;2.79;92.37
77299;BME280;66361;52.034;20.656;2023-02-01T20:34:32;98619.66;;;2.85;91.99
77299;BME280;66361;52.034;20.656;2023-02-01T20:38:36;98621.84;;;2.92;91.54
77299;BME280;66361;52.034;20.656;2023-02-01T20:42:40;98608.81;;;2.92;91.41
77299;BME280;66361;52.034;20.656;2023-02-01T20:46:45;98614.56;;;2.83;91.67
77299;BME280;66361;52.034;20.656;2023-02-01T20:50:52;98607.25;;;2.74;91.83
77299;BME280;66361;52.034;20.656;2023-02-01T20:54:56;98613.63;;;2.69;92.46
77299;BME280;66361;52.034;20.656;2023-02-01T20:59:01;98619.00;;;2.66;92.63
77299;BME280;66361;52.034;20.656;2023-02-01T21:03:14;98611.59;;;2.58;93.29
77299;BME280;66361;52.034;20.656;2023-02-01T21:07:17;98612.69;;;2.54;93.63
77299;BME280;66361;52.034;20.656;2023-02-01T21:11:21;98612.63;;;2.40;93.93
77299;BME280;66361;52.034;20.656;2023-02-01T21:15:24;98616.72;;;2.28;95.25
77299;BME280;66361;52.034;20.656;2023-02-01T21:19:30;98617.91;;;2.23;96.40
77299;BME280;66361;52.034;20.656;2023-02-01T21:23:47;98615.31;;;2.23;96.99
77299;BME280;66361;52.034;20.656;2023-02-01T21:27:50;98624.38;;;2.16;97.89
77299;BME280;66361;52.034;20.656;2023-02-01T21:31:55;98626.56;;;2.23;98.61
77299;BME280;66361;52.034;20.656;2023-02-01T21:36:01;98623.84;;;2.25;98.60
77299;BME280;66361;52.034;20.656;2023-02-01T21:40:05;98621.50;;;2.36;98.99
77299;BME280;66361;52.034;20.656;2023-02-01T21:44:09;98631.19;;;2.50;98.08
77299;BME280;66361;52.034;20.656;2023-02-01T21:48:15;98619.16;;;2.63;97.49
77299;BME280;66361;52.034;20.656;2023-02-01T21:52:29;98610.19;;;2.68;96.14
77299;BME280;66361;52.034;20.656;2023-02-01T21:56:32;98612.44;;;2.74;96.59
77299;BME280;66361;52.034;20.656;2023-02-01T22:00:35;98614.03;;;2.77;97.08
77299;BME280;66361;52.034;20.656;2023-02-01T22:04:39;98607.31;;;2.73;98.04